Accueil
METAR-TAF:

METAR-TAF

Aéroports :

Tokushima, Japon

latitude: 34-08N, longitude: 134-37E, altitude: 8 m

Observation

Le bulletin a été fait il y a 9 heures et 16 minutes, à 23:32 UTC
Vent 11 kt de nord-ouest
Température 26°C
Humidité 74%
Pression 1011 hPa
Visibilité 10 km ou plus
Quelques nuages à une hauteur de 1500 ft
Nuages épars à une hauteur de 3000 ft
Nuages fragmentés à une hauteur de 5000 ft

METAR: RJOS 212332Z 31011KT 9999 FEW015 SCT030 BKN050 26/21 Q1011 RMK 1CU015 4CU030 6SC050 A2986

Heure: 17:48 (08:48 UTC)


TAF: absent

Observations et prévisions météorologiques de plus de 4000 aéroports (messages METAR et TAF).

Les stations disponibles sont représentées par des disques jaunes et rouges sur la carte.

Passer la souris dessus pour voir le nom de la station.

Cliquer dessus pour voir les observations et prévisions météorologiques.

Pour changer de carte: cliquez sur les boutons verts avec une croix noire pour zoomer, sur le bouton vert avec un tiret pour effectuer un zoom arrière, ou sur les flèches vertes pour les cartes adjacentes.


METAR-TAF: